sensor_id;sensor_type;location;lat;lon;timestamp;pressure;altitude;pressure_sealevel;temperature;humidity
1401;BME280;46518;48.842;8.926;2023-04-20T00:00:06;97131.22;;;4.83;72.01
1401;BME280;46518;48.842;8.926;2023-04-20T00:02:41;97136.13;;;4.66;72.26
1401;BME280;46518;48.842;8.926;2023-04-20T00:05:09;97123.69;;;4.68;72.22
1401;BME280;46518;48.842;8.926;2023-04-20T00:07:38;97121.06;;;4.68;72.90
1401;BME280;46518;48.842;8.926;2023-04-20T00:10:09;97125.41;;;4.81;74.04
1401;BME280;46518;48.842;8.926;2023-04-20T00:12:37;97114.03;;;4.75;73.24
1401;BME280;46518;48.842;8.926;2023-04-20T00:15:06;97116.72;;;4.55;72.07
1401;BME280;46518;48.842;8.926;2023-04-20T00:17:35;97107.75;;;4.44;72.90
1401;BME280;46518;48.842;8.926;2023-04-20T00:20:06;97108.00;;;4.29;72.62
1401;BME280;46518;48.842;8.926;2023-04-20T00:22:35;97105.22;;;4.11;73.25
1401;BME280;46518;48.842;8.926;2023-04-20T00:25:07;97104.22;;;4.12;74.64
1401;BME280;46518;48.842;8.926;2023-04-20T00:27:35;97099.16;;;4.37;73.65
1401;BME280;46518;48.842;8.926;2023-04-20T00:30:03;97092.66;;;4.53;73.61
1401;BME280;46518;48.842;8.926;2023-04-20T00:32:32;97084.66;;;4.54;73.56
1401;BME280;46518;48.842;8.926;2023-04-20T00:35:00;97084.41;;;4.56;73.50
1401;BME280;46518;48.842;8.926;2023-04-20T00:37:32;97077.81;;;4.53;73.82
1401;BME280;46518;48.842;8.926;2023-04-20T00:39:59;97073.00;;;4.57;74.15
1401;BME280;46518;48.842;8.926;2023-04-20T00:42:29;97074.59;;;4.58;74.02
1401;BME280;46518;48.842;8.926;2023-04-20T00:44:57;97066.22;;;4.49;73.82
1401;BME280;46518;48.842;8.926;2023-04-20T00:47:26;97077.00;;;4.60;73.30
1401;BME280;46518;48.842;8.926;2023-04-20T00:49:54;97065.47;;;4.74;72.87
1401;BME280;46518;48.842;8.926;2023-04-20T00:52:22;97064.69;;;4.73;73.51
1401;BME280;46518;48.842;8.926;2023-04-20T00:54:52;97062.47;;;4.77;73.46
1401;BME280;46518;48.842;8.926;2023-04-20T00:57:21;97059.44;;;4.80;74.07
1401;BME280;46518;48.842;8.926;2023-04-20T00:59:49;97054.00;;;4.82;74.10
1401;BME280;46518;48.842;8.926;2023-04-20T01:02:21;97036.81;;;4.74;74.31
1401;BME280;46518;48.842;8.926;2023-04-20T01:04:49;97047.06;;;4.69;73.71
1401;BME280;46518;48.842;8.926;2023-04-20T01:07:17;97036.00;;;4.73;73.86
1401;BME280;46518;48.842;8.926;2023-04-20T01:09:48;97033.97;;;4.82;73.77
1401;BME280;46518;48.842;8.926;2023-04-20T01:12:17;97021.22;;;4.67;73.03
1401;BME280;46518;48.842;8.926;2023-04-20T01:14:48;97023.22;;;4.65;73.52
1401;BME280;46518;48.842;8.926;2023-04-20T01:17:17;97011.56;;;4.74;73.37
1401;BME280;46518;48.842;8.926;2023-04-20T01:19:46;97010.88;;;4.86;72.91
1401;BME280;46518;48.842;8.926;2023-04-20T01:22:17;97007.84;;;4.89;73.23
1401;BME280;46518;48.842;8.926;2023-04-20T01:24:45;97004.41;;;4.95;72.19
1401;BME280;46518;48.842;8.926;2023-04-20T01:27:13;97003.63;;;4.88;71.87
1401;BME280;46518;48.842;8.926;2023-04-20T01:29:43;96993.00;;;4.58;72.94
1401;BME280;46518;48.842;8.926;2023-04-20T01:32:12;96983.28;;;4.40;73.09
1401;BME280;46518;48.842;8.926;2023-04-20T01:34:40;96994.47;;;4.47;73.68
1401;BME280;46518;48.842;8.926;2023-04-20T01:37:08;96992.53;;;4.29;73.20
1401;BME280;46518;48.842;8.926;2023-04-20T01:39:39;96982.19;;;4.16;73.94
1401;BME280;46518;48.842;8.926;2023-04-20T01:42:08;96978.69;;;3.90;74.04
1401;BME280;46518;48.842;8.926;2023-04-20T01:44:36;96981.97;;;3.59;75.97
1401;BME280;46518;48.842;8.926;2023-04-20T01:47:04;96979.13;;;3.80;75.93
1401;BME280;46518;48.842;8.926;2023-04-20T01:49:32;96976.47;;;3.94;75.94
1401;BME280;46518;48.842;8.926;2023-04-20T01:52:00;96970.00;;;4.09;76.08
1401;BME280;46518;48.842;8.926;2023-04-20T01:54:29;96974.22;;;4.04;76.35
1401;BME280;46518;48.842;8.926;2023-04-20T01:56:58;96964.56;;;4.18;76.81
1401;BME280;46518;48.842;8.926;2023-04-20T01:59:26;96958.50;;;4.24;75.93
1401;BME280;46518;48.842;8.926;2023-04-20T02:01:55;96960.66;;;4.33;75.55
1401;BME280;46518;48.842;8.926;2023-04-20T02:04:23;96965.63;;;4.42;74.86
1401;BME280;46518;48.842;8.926;2023-04-20T02:06:51;96961.59;;;4.46;73.82
1401;BME280;46518;48.842;8.926;2023-04-20T02:09:20;96948.09;;;4.24;74.31
1401;BME280;46518;48.842;8.926;2023-04-20T02:11:48;96952.22;;;4.00;75.14
1401;BME280;46518;48.842;8.926;2023-04-20T02:14:18;96954.25;;;3.91;75.51
1401;BME280;46518;48.842;8.926;2023-04-20T02:16:46;96953.28;;;3.79;76.22
1401;BME280;46518;48.842;8.926;2023-04-20T02:19:14;96945.47;;;3.85;77.57
1401;BME280;46518;48.842;8.926;2023-04-20T02:21:45;96951.69;;;3.84;77.30
1401;BME280;46518;48.842;8.926;2023-04-20T02:24:14;96939.41;;;3.92;77.58
1401;BME280;46518;48.842;8.926;2023-04-20T02:26:42;96931.16;;;4.01;77.59
1401;BME280;46518;48.842;8.926;2023-04-20T02:29:11;96936.09;;;4.16;77.70
1401;BME280;46518;48.842;8.926;2023-04-20T02:31:40;96935.13;;;4.17;77.27
1401;BME280;46518;48.842;8.926;2023-04-20T02:34:09;96931.13;;;4.15;77.22
1401;BME280;46518;48.842;8.926;2023-04-20T02:36:37;96931.91;;;4.15;77.44
1401;BME280;46518;48.842;8.926;2023-04-20T02:39:05;96927.16;;;4.05;77.40
1401;BME280;46518;48.842;8.926;2023-04-20T02:41:33;96923.44;;;3.88;76.67
1401;BME280;46518;48.842;8.926;2023-04-20T02:44:02;96918.81;;;3.90;77.07
1401;BME280;46518;48.842;8.926;2023-04-20T02:46:33;96922.81;;;3.86;76.93
1401;BME280;46518;48.842;8.926;2023-04-20T02:49:02;96923.63;;;3.86;77.65
1401;BME280;46518;48.842;8.926;2023-04-20T02:51:37;96907.00;;;3.87;77.91
1401;BME280;46518;48.842;8.926;2023-04-20T02:54:05;96906.66;;;3.77;77.63
1401;BME280;46518;48.842;8.926;2023-04-20T02:56:34;96881.00;;;3.81;77.34
1401;BME280;46518;48.842;8.926;2023-04-20T02:59:07;96904.94;;;4.03;77.81
1401;BME280;46518;48.842;8.926;2023-04-20T03:01:35;96903.53;;;4.00;75.36
1401;BME280;46518;48.842;8.926;2023-04-20T03:04:11;96901.41;;;3.84;75.93
1401;BME280;46518;48.842;8.926;2023-04-20T03:06:50;96904.25;;;3.76;75.26
1401;BME280;46518;48.842;8.926;2023-04-20T03:09:25;96907.53;;;3.51;75.51
1401;BME280;46518;48.842;8.926;2023-04-20T03:11:53;96898.50;;;3.60;76.04
1401;BME280;46518;48.842;8.926;2023-04-20T03:14:48;96903.50;;;3.62;76.13
1401;BME280;46518;48.842;8.926;2023-04-20T03:17:20;96896.91;;;3.59;75.18
1401;BME280;46518;48.842;8.926;2023-04-20T03:19:52;96893.91;;;3.62;75.26
1401;BME280;46518;48.842;8.926;2023-04-20T03:22:20;96883.34;;;3.51;75.62
1401;BME280;46518;48.842;8.926;2023-04-20T03:24:52;96888.78;;;3.29;76.56
1401;BME280;46518;48.842;8.926;2023-04-20T03:27:38;96884.81;;;3.20;77.43
1401;BME280;46518;48.842;8.926;2023-04-20T03:30:11;96892.00;;;3.31;77.81
1401;BME280;46518;48.842;8.926;2023-04-20T03:32:40;96887.94;;;3.42;77.95
1401;BME280;46518;48.842;8.926;2023-04-20T03:35:10;96892.72;;;3.58;78.31
1401;BME280;46518;48.842;8.926;2023-04-20T03:37:39;96897.72;;;3.60;78.40
1401;BME280;46518;48.842;8.926;2023-04-20T03:40:11;96897.47;;;3.75;77.85
1401;BME280;46518;48.842;8.926;2023-04-20T03:42:42;96907.03;;;3.81;77.19
1401;BME280;46518;48.842;8.926;2023-04-20T03:45:13;96895.84;;;3.74;77.18
1401;BME280;46518;48.842;8.926;2023-04-20T03:47:42;96895.25;;;3.72;77.28
1401;BME280;46518;48.842;8.926;2023-04-20T03:50:11;96897.84;;;3.72;77.57
1401;BME280;46518;48.842;8.926;2023-04-20T03:52:40;96896.63;;;3.74;77.26
1401;BME280;46518;48.842;8.926;2023-04-20T03:55:09;96897.47;;;3.68;77.33
1401;BME280;46518;48.842;8.926;2023-04-20T03:57:44;96889.91;;;3.60;77.58
1401;BME280;46518;48.842;8.926;2023-04-20T04:00:13;96897.75;;;3.46;78.22
1401;BME280;46518;48.842;8.926;2023-04-20T04:02:45;96890.75;;;3.47;78.79
1401;BME280;46518;48.842;8.926;2023-04-20T04:05:21;96891.72;;;3.53;78.71
1401;BME280;46518;48.842;8.926;2023-04-20T04:07:50;96891.13;;;3.51;78.11
1401;BME280;46518;48.842;8.926;2023-04-20T04:10:18;96891.00;;;3.32;78.31
1401;BME280;46518;48.842;8.926;2023-04-20T04:12:48;96892.53;;;3.46;78.68
1401;BME280;46518;48.842;8.926;2023-04-20T04:15:16;96890.16;;;3.38;77.70
1401;BME280;46518;48.842;8.926;2023-04-20T04:17:53;96893.00;;;3.30;77.77
1401;BME280;46518;48.842;8.926;2023-04-20T04:20:23;96896.41;;;3.31;78.86
1401;BME280;46518;48.842;8.926;2023-04-20T04:22:54;96889.25;;;2.99;78.84
1401;BME280;46518;48.842;8.926;2023-04-20T04:25:49;96895.03;;;3.08;79.41
1401;BME280;46518;48.842;8.926;2023-04-20T04:28:22;96889.47;;;3.05;80.22
1401;BME280;46518;48.842;8.926;2023-04-20T04:31:09;96883.22;;;3.19;79.93
1401;BME280;46518;48.842;8.926;2023-04-20T04:33:38;96890.81;;;3.27;79.73
1401;BME280;46518;48.842;8.926;2023-04-20T04:36:09;96883.03;;;3.20;79.73
1401;BME280;46518;48.842;8.926;2023-04-20T04:38:38;96887.25;;;3.15;79.12
1401;BME280;46518;48.842;8.926;2023-04-20T04:41:07;96886.44;;;3.01;79.93
1401;BME280;46518;48.842;8.926;2023-04-20T04:43:36;96885.66;;;2.94;79.94
1401;BME280;46518;48.842;8.926;2023-04-20T04:46:13;96886.41;;;3.21;79.89
1401;BME280;46518;48.842;8.926;2023-04-20T04:48:43;96882.59;;;3.30;80.48
1401;BME280;46518;48.842;8.926;2023-04-20T04:51:13;96882.00;;;3.35;79.80
1401;BME280;46518;48.842;8.926;2023-04-20T04:53:42;96879.16;;;3.36;80.12
1401;BME280;46518;48.842;8.926;2023-04-20T04:56:12;96878.97;;;3.44;80.87
1401;BME280;46518;48.842;8.926;2023-04-20T04:58:41;96878.38;;;3.42;80.24
1401;BME280;46518;48.842;8.926;2023-04-20T05:01:10;96882.75;;;3.42;80.41
1401;BME280;46518;48.842;8.926;2023-04-20T05:03:38;96879.94;;;3.43;81.08
1401;BME280;46518;48.842;8.926;2023-04-20T05:06:07;96882.34;;;3.45;80.86
1401;BME280;46518;48.842;8.926;2023-04-20T05:08:36;96875.75;;;3.42;81.30
1401;BME280;46518;48.842;8.926;2023-04-20T05:11:07;96882.53;;;3.50;80.95
1401;BME280;46518;48.842;8.926;2023-04-20T05:13:36;96889.31;;;3.51;81.02
1401;BME280;46518;48.842;8.926;2023-04-20T05:16:05;96886.91;;;3.56;81.64
1401;BME280;46518;48.842;8.926;2023-04-20T05:18:33;96891.69;;;3.66;81.48
1401;BME280;46518;48.842;8.926;2023-04-20T05:21:01;96889.44;;;3.76;81.65
1401;BME280;46518;48.842;8.926;2023-04-20T05:23:29;96886.22;;;3.81;81.67
1401;BME280;46518;48.842;8.926;2023-04-20T05:25:59;96887.00;;;3.81;81.28
1401;BME280;46518;48.842;8.926;2023-04-20T05:28:27;96893.38;;;3.92;82.04
1401;BME280;46518;48.842;8.926;2023-04-20T05:30:56;96893.56;;;3.97;81.55
1401;BME280;46518;48.842;8.926;2023-04-20T05:33:24;96888.16;;;3.92;81.63
1401;BME280;46518;48.842;8.926;2023-04-20T05:35:54;96888.09;;;4.05;81.60
1401;BME280;46518;48.842;8.926;2023-04-20T05:38:23;96868.06;;;3.99;81.30
1401;BME280;46518;48.842;8.926;2023-04-20T05:40:51;96860.69;;;3.96;80.67
1401;BME280;46518;48.842;8.926;2023-04-20T05:43:20;96890.41;;;4.20;80.61
1401;BME280;46518;48.842;8.926;2023-04-20T05:45:49;96889.22;;;4.16;80.52
1401;BME280;46518;48.842;8.926;2023-04-20T05:48:17;96889.63;;;4.20;81.51
1401;BME280;46518;48.842;8.926;2023-04-20T05:50:46;96879.72;;;4.28;81.16
1401;BME280;46518;48.842;8.926;2023-04-20T05:53:14;96882.13;;;4.30;81.15
1401;BME280;46518;48.842;8.926;2023-04-20T05:55:42;96881.66;;;4.40;81.36
1401;BME280;46518;48.842;8.926;2023-04-20T05:58:10;96881.22;;;4.49;81.53
1401;BME280;46518;48.842;8.926;2023-04-20T06:00:40;96885.75;;;4.54;81.84
1401;BME280;46518;48.842;8.926;2023-04-20T06:03:08;96885.88;;;4.66;81.38
1401;BME280;46518;48.842;8.926;2023-04-20T06:05:37;96884.81;;;4.73;80.67
1401;BME280;46518;48.842;8.926;2023-04-20T06:08:05;96890.81;;;4.74;80.42
1401;BME280;46518;48.842;8.926;2023-04-20T06:10:33;96882.50;;;4.84;80.33
1401;BME280;46518;48.842;8.926;2023-04-20T06:13:01;96887.47;;;4.92;79.72
1401;BME280;46518;48.842;8.926;2023-04-20T06:15:29;96888.41;;;4.97;79.38
1401;BME280;46518;48.842;8.926;2023-04-20T06:17:59;96888.53;;;5.09;79.27
1401;BME280;46518;48.842;8.926;2023-04-20T06:20:28;96880.69;;;5.09;79.06
1401;BME280;46518;48.842;8.926;2023-04-20T06:22:56;96880.03;;;5.14;79.02
1401;BME280;46518;48.842;8.926;2023-04-20T06:25:27;96873.56;;;5.16;78.36
1401;BME280;46518;48.842;8.926;2023-04-20T06:27:55;96873.91;;;5.27;79.05
1401;BME280;46518;48.842;8.926;2023-04-20T06:30:23;96873.00;;;5.33;78.20
1401;BME280;46518;48.842;8.926;2023-04-20T06:32:51;96872.28;;;5.44;79.16
1401;BME280;46518;48.842;8.926;2023-04-20T06:35:21;96872.00;;;5.52;78.69
1401;BME280;46518;48.842;8.926;2023-04-20T06:37:49;96868.31;;;5.60;78.60
1401;BME280;46518;48.842;8.926;2023-04-20T06:40:18;96874.00;;;5.69;78.13
1401;BME280;46518;48.842;8.926;2023-04-20T06:42:46;96873.72;;;5.77;77.86
1401;BME280;46518;48.842;8.926;2023-04-20T06:45:14;96860.22;;;5.80;78.25
1401;BME280;46518;48.842;8.926;2023-04-20T06:47:44;96852.53;;;5.85;78.08
1401;BME280;46518;48.842;8.926;2023-04-20T06:50:15;96861.00;;;5.99;77.75
1401;BME280;46518;48.842;8.926;2023-04-20T06:52:45;96860.59;;;6.14;78.02
1401;BME280;46518;48.842;8.926;2023-04-20T06:55:17;96866.97;;;6.18;77.39
1401;BME280;46518;48.842;8.926;2023-04-20T06:57:45;96863.44;;;6.24;77.34
1401;BME280;46518;48.842;8.926;2023-04-20T07:00:14;96866.09;;;6.36;76.88
1401;BME280;46518;48.842;8.926;2023-04-20T07:02:45;96862.59;;;6.42;76.76
1401;BME280;46518;48.842;8.926;2023-04-20T07:05:14;96860.13;;;6.47;76.62
1401;BME280;46518;48.842;8.926;2023-04-20T07:07:44;96862.19;;;6.57;76.30
1401;BME280;46518;48.842;8.926;2023-04-20T07:10:13;96867.41;;;6.68;76.02
1401;BME280;46518;48.842;8.926;2023-04-20T07:12:42;96872.31;;;6.77;75.45
1401;BME280;46518;48.842;8.926;2023-04-20T07:15:11;96860.59;;;6.79;74.99
1401;BME280;46518;48.842;8.926;2023-04-20T07:17:39;96853.66;;;6.85;74.85
1401;BME280;46518;48.842;8.926;2023-04-20T07:20:08;96853.66;;;6.73;74.22
1401;BME280;46518;48.842;8.926;2023-04-20T07:22:38;96856.50;;;6.83;74.42
1401;BME280;46518;48.842;8.926;2023-04-20T07:25:09;96843.06;;;7.03;73.94
1401;BME280;46518;48.842;8.926;2023-04-20T07:27:39;96843.41;;;6.95;73.63
1401;BME280;46518;48.842;8.926;2023-04-20T07:30:11;96844.53;;;7.11;73.33
1401;BME280;46518;48.842;8.926;2023-04-20T07:32:39;96831.22;;;7.24;73.39
1401;BME280;46518;48.842;8.926;2023-04-20T07:35:09;96841.69;;;7.24;73.27
1401;BME280;46518;48.842;8.926;2023-04-20T07:37:37;96837.13;;;7.31;72.70
1401;BME280;46518;48.842;8.926;2023-04-20T07:40:09;96843.00;;;7.39;72.70
1401;BME280;46518;48.842;8.926;2023-04-20T07:42:37;96842.47;;;7.37;73.29
1401;BME280;46518;48.842;8.926;2023-04-20T07:45:06;96843.84;;;7.39;74.10
1401;BME280;46518;48.842;8.926;2023-04-20T07:47:35;96834.72;;;7.42;74.50
1401;BME280;46518;48.842;8.926;2023-04-20T07:50:04;96831.34;;;7.58;73.79
1401;BME280;46518;48.842;8.926;2023-04-20T07:52:37;96830.94;;;7.78;73.69
1401;BME280;46518;48.842;8.926;2023-04-20T07:55:09;96833.03;;;7.93;73.68
1401;BME280;46518;48.842;8.926;2023-04-20T07:57:39;96833.78;;;8.05;73.33
1401;BME280;46518;48.842;8.926;2023-04-20T08:00:09;96830.13;;;8.06;72.73
1401;BME280;46518;48.842;8.926;2023-04-20T08:02:39;96831.91;;;8.17;72.33
1401;BME280;46518;48.842;8.926;2023-04-20T08:05:08;96831.19;;;8.22;73.14
1401;BME280;46518;48.842;8.926;2023-04-20T08:07:37;96834.41;;;8.41;72.24
1401;BME280;46518;48.842;8.926;2023-04-20T08:10:08;96836.91;;;8.36;72.12
1401;BME280;46518;48.842;8.926;2023-04-20T08:12:37;96827.25;;;8.53;71.90
1401;BME280;46518;48.842;8.926;2023-04-20T08:15:07;96830.28;;;8.62;71.75
1401;BME280;46518;48.842;8.926;2023-04-20T08:17:35;96824.72;;;8.58;71.56
1401;BME280;46518;48.842;8.926;2023-04-20T08:20:05;96816.78;;;8.53;70.97
1401;BME280;46518;48.842;8.926;2023-04-20T08:22:33;96825.69;;;8.52;70.40
1401;BME280;46518;48.842;8.926;2023-04-20T08:25:02;96824.63;;;8.53;69.55
1401;BME280;46518;48.842;8.926;2023-04-20T08:27:33;96820.38;;;8.64;69.50
1401;BME280;46518;48.842;8.926;2023-04-20T08:30:01;96826.78;;;8.73;69.99
1401;BME280;46518;48.842;8.926;2023-04-20T08:32:32;96816.41;;;8.83;70.29
1401;BME280;46518;48.842;8.926;2023-04-20T08:35:00;96816.06;;;8.75;68.53
1401;BME280;46518;48.842;8.926;2023-04-20T08:37:29;96814.91;;;8.88;68.93
1401;BME280;46518;48.842;8.926;2023-04-20T08:40:01;96821.66;;;9.00;68.98
1401;BME280;46518;48.842;8.926;2023-04-20T08:42:30;96825.31;;;8.99;68.06
1401;BME280;46518;48.842;8.926;2023-04-20T08:44:59;96823.31;;;9.06;67.68
1401;BME280;46518;48.842;8.926;2023-04-20T08:47:28;96823.31;;;9.06;68.05
1401;BME280;46518;48.842;8.926;2023-04-20T08:49:58;96821.97;;;9.04;67.71
1401;BME280;46518;48.842;8.926;2023-04-20T08:52:27;96826.09;;;9.00;68.01
1401;BME280;46518;48.842;8.926;2023-04-20T08:54:58;96828.38;;;8.91;68.28
1401;BME280;46518;48.842;8.926;2023-04-20T08:57:29;96824.66;;;9.09;68.36
1401;BME280;46518;48.842;8.926;2023-04-20T08:59:57;96820.69;;;9.06;68.58
1401;BME280;46518;48.842;8.926;2023-04-20T09:02:27;96824.91;;;9.07;68.04
1401;BME280;46518;48.842;8.926;2023-04-20T09:05:02;96831.66;;;9.03;67.70
1401;BME280;46518;48.842;8.926;2023-04-20T09:07:32;96823.91;;;8.92;67.30
1401;BME280;46518;48.842;8.926;2023-04-20T09:10:00;96826.38;;;8.81;68.36
1401;BME280;46518;48.842;8.926;2023-04-20T09:12:39;96827.09;;;8.77;68.38
1401;BME280;46518;48.842;8.926;2023-04-20T09:15:09;96829.72;;;8.60;68.86
1401;BME280;46518;48.842;8.926;2023-04-20T09:17:39;96822.66;;;8.60;69.84
1401;BME280;46518;48.842;8.926;2023-04-20T09:20:08;96819.72;;;8.57;70.64
1401;BME280;46518;48.842;8.926;2023-04-20T09:22:37;96822.56;;;8.55;70.52
1401;BME280;46518;48.842;8.926;2023-04-20T09:25:17;96822.84;;;8.54;70.99
1401;BME280;46518;48.842;8.926;2023-04-20T09:27:54;96821.94;;;8.48;70.72
1401;BME280;46518;48.842;8.926;2023-04-20T09:30:22;96815.69;;;8.49;71.77
1401;BME280;46518;48.842;8.926;2023-04-20T09:33:01;96819.88;;;8.50;71.47
1401;BME280;46518;48.842;8.926;2023-04-20T09:35:30;96820.94;;;8.49;71.84
1401;BME280;46518;48.842;8.926;2023-04-20T09:37:58;96823.28;;;8.51;71.90
1401;BME280;46518;48.842;8.926;2023-04-20T09:40:27;96816.47;;;8.50;72.29
1401;BME280;46518;48.842;8.926;2023-04-20T09:42:58;96820.84;;;8.44;73.03
1401;BME280;46518;48.842;8.926;2023-04-20T09:45:30;96804.44;;;8.37;72.60
1401;BME280;46518;48.842;8.926;2023-04-20T09:47:58;96810.50;;;8.54;72.97
1401;BME280;46518;48.842;8.926;2023-04-20T09:50:29;96813.06;;;8.49;72.86
1401;BME280;46518;48.842;8.926;2023-04-20T09:53:15;96811.53;;;8.53;72.35
1401;BME280;46518;48.842;8.926;2023-04-20T09:55:45;96811.94;;;8.45;73.34
1401;BME280;46518;48.842;8.926;2023-04-20T09:58:16;96815.69;;;8.49;73.23
1401;BME280;46518;48.842;8.926;2023-04-20T10:00:45;96812.16;;;8.43;73.92
1401;BME280;46518;48.842;8.926;2023-04-20T10:03:16;96808.81;;;8.48;73.63
1401;BME280;46518;48.842;8.926;2023-04-20T10:05:46;96804.63;;;8.47;75.00
1401;BME280;46518;48.842;8.926;2023-04-20T10:08:16;96811.53;;;8.53;75.28
1401;BME280;46518;48.842;8.926;2023-04-20T10:10:47;96808.53;;;8.61;75.84
1401;BME280;46518;48.842;8.926;2023-04-20T10:13:16;96814.16;;;8.70;75.87
1401;BME280;46518;48.842;8.926;2023-04-20T10:15:48;96810.16;;;8.68;76.31
1401;BME280;46518;48.842;8.926;2023-04-20T10:18:21;96808.53;;;8.61;75.42
1401;BME280;46518;48.842;8.926;2023-04-20T10:21:07;96802.16;;;8.57;75.41
1401;BME280;46518;48.842;8.926;2023-04-20T10:23:46;96800.00;;;8.54;74.78
1401;BME280;46518;48.842;8.926;2023-04-20T10:26:14;96787.84;;;8.48;75.20
1401;BME280;46518;48.842;8.926;2023-04-20T10:28:43;96792.31;;;8.48;74.94
1401;BME280;46518;48.842;8.926;2023-04-20T10:31:12;96790.47;;;8.48;75.39
1401;BME280;46518;48.842;8.926;2023-04-20T10:33:50;96782.94;;;8.52;75.51
1401;BME280;46518;48.842;8.926;2023-04-20T10:36:27;96780.06;;;8.53;75.63
1401;BME280;46518;48.842;8.926;2023-04-20T10:38:56;96776.41;;;8.54;75.55
1401;BME280;46518;48.842;8.926;2023-04-20T10:41:24;96778.00;;;8.55;75.85
1401;BME280;46518;48.842;8.926;2023-04-20T10:43:52;96768.69;;;8.48;76.02
1401;BME280;46518;48.842;8.926;2023-04-20T10:46:21;96766.31;;;8.46;76.66
1401;BME280;46518;48.842;8.926;2023-04-20T10:48:54;96752.00;;;8.37;76.13
1401;BME280;46518;48.842;8.926;2023-04-20T10:51:24;96753.94;;;8.41;75.72
1401;BME280;46518;48.842;8.926;2023-04-20T10:53:59;96757.09;;;8.43;76.00
1401;BME280;46518;48.842;8.926;2023-04-20T10:56:36;96756.06;;;8.45;75.94
1401;BME280;46518;48.842;8.926;2023-04-20T10:59:07;96751.19;;;8.53;76.09
1401;BME280;46518;48.842;8.926;2023-04-20T11:01:37;96749.03;;;8.67;75.92
1401;BME280;46518;48.842;8.926;2023-04-20T11:04:05;96749.84;;;8.68;76.15
1401;BME280;46518;48.842;8.926;2023-04-20T11:06:35;96748.81;;;8.69;76.69
1401;BME280;46518;48.842;8.926;2023-04-20T11:09:03;96743.16;;;8.77;76.76
1401;BME280;46518;48.842;8.926;2023-04-20T11:11:44;96743.63;;;8.74;76.67
1401;BME280;46518;48.842;8.926;2023-04-20T11:14:13;96738.69;;;8.77;76.93
1401;BME280;46518;48.842;8.926;2023-04-20T11:16:50;96730.75;;;8.72;76.79
1401;BME280;46518;48.842;8.926;2023-04-20T11:19:24;96735.75;;;8.74;77.20
1401;BME280;46518;48.842;8.926;2023-04-20T11:21:54;96730.75;;;8.72;76.51
1401;BME280;46518;48.842;8.926;2023-04-20T11:24:24;96733.13;;;8.74;76.72
1401;BME280;46518;48.842;8.926;2023-04-20T11:26:53;96731.31;;;8.74;76.55
1401;BME280;46518;48.842;8.926;2023-04-20T11:29:27;96739.34;;;8.68;77.42
1401;BME280;46518;48.842;8.926;2023-04-20T11:31:56;96742.44;;;8.64;77.55
1401;BME280;46518;48.842;8.926;2023-04-20T11:34:25;96745.31;;;8.63;78.13
1401;BME280;46518;48.842;8.926;2023-04-20T11:36:55;96755.72;;;8.58;78.25
1401;BME280;46518;48.842;8.926;2023-04-20T11:39:23;96755.91;;;8.51;78.55
1401;BME280;46518;48.842;8.926;2023-04-20T11:41:52;96760.91;;;8.53;80.02
1401;BME280;46518;48.842;8.926;2023-04-20T11:44:23;96757.50;;;8.52;80.47
1401;BME280;46518;48.842;8.926;2023-04-20T11:46:52;96757.25;;;8.54;80.23
1401;BME280;46518;48.842;8.926;2023-04-20T11:49:24;96754.16;;;8.57;80.04
1401;BME280;46518;48.842;8.926;2023-04-20T11:51:54;96753.53;;;8.50;80.86
1401;BME280;46518;48.842;8.926;2023-04-20T11:54:23;96742.97;;;8.45;80.65
1401;BME280;46518;48.842;8.926;2023-04-20T11:56:53;96745.25;;;8.41;81.40
1401;BME280;46518;48.842;8.926;2023-04-20T11:59:21;96741.91;;;8.29;80.69
1401;BME280;46518;48.842;8.926;2023-04-20T12:01:49;96750.25;;;8.09;80.15
1401;BME280;46518;48.842;8.926;2023-04-20T12:04:18;96752.06;;;8.08;80.29
1401;BME280;46518;48.842;8.926;2023-04-20T12:06:47;96748.28;;;7.99;81.41
1401;BME280;46518;48.842;8.926;2023-04-20T12:09:16;96745.97;;;8.03;81.68
1401;BME280;46518;48.842;8.926;2023-04-20T12:11:45;96746.66;;;7.98;81.93
1401;BME280;46518;48.842;8.926;2023-04-20T12:14:13;96748.28;;;7.99;81.85
1401;BME280;46518;48.842;8.926;2023-04-20T12:16:41;96751.44;;;8.01;81.77
1401;BME280;46518;48.842;8.926;2023-04-20T12:19:10;96749.63;;;8.02;82.13
1401;BME280;46518;48.842;8.926;2023-04-20T12:21:38;96753.34;;;8.06;82.81
1401;BME280;46518;48.842;8.926;2023-04-20T12:24:07;96752.41;;;8.12;82.99
1401;BME280;46518;48.842;8.926;2023-04-20T12:26:36;96746.69;;;8.15;82.41
1401;BME280;46518;48.842;8.926;2023-04-20T12:29:11;96741.03;;;8.06;82.91
1401;BME280;46518;48.842;8.926;2023-04-20T12:31:39;96743.97;;;7.93;84.97
1401;BME280;46518;48.842;8.926;2023-04-20T12:34:07;96738.00;;;7.81;86.47
1401;BME280;46518;48.842;8.926;2023-04-20T12:36:35;96731.41;;;7.78;86.78
1401;BME280;46518;48.842;8.926;2023-04-20T12:39:04;96735.63;;;7.96;86.88
1401;BME280;46518;48.842;8.926;2023-04-20T12:41:32;96740.88;;;7.96;86.89
1401;BME280;46518;48.842;8.926;2023-04-20T12:44:01;96739.34;;;7.83;87.27
1401;BME280;46518;48.842;8.926;2023-04-20T12:46:33;96734.28;;;7.76;87.81
1401;BME280;46518;48.842;8.926;2023-04-20T12:49:02;96728.47;;;7.74;88.30
1401;BME280;46518;48.842;8.926;2023-04-20T12:51:30;96721.16;;;7.60;89.28
1401;BME280;46518;48.842;8.926;2023-04-20T12:53:58;96718.91;;;7.68;89.38
1401;BME280;46518;48.842;8.926;2023-04-20T12:56:27;96729.66;;;7.67;89.10
1401;BME280;46518;48.842;8.926;2023-04-20T12:58:55;96724.81;;;7.75;89.04
1401;BME280;46518;48.842;8.926;2023-04-20T13:01:24;96726.25;;;7.83;88.26
1401;BME280;46518;48.842;8.926;2023-04-20T13:03:54;96722.34;;;7.69;88.28
1401;BME280;46518;48.842;8.926;2023-04-20T13:06:24;96707.25;;;7.59;90.25
1401;BME280;46518;48.842;8.926;2023-04-20T13:08:52;96704.66;;;7.59;90.78
1401;BME280;46518;48.842;8.926;2023-04-20T13:11:20;96711.06;;;7.68;91.05
1401;BME280;46518;48.842;8.926;2023-04-20T13:13:51;96726.59;;;7.58;91.43
1401;BME280;46518;48.842;8.926;2023-04-20T13:16:19;96737.09;;;7.58;90.53
1401;BME280;46518;48.842;8.926;2023-04-20T13:18:49;96735.59;;;7.62;90.61
1401;BME280;46518;48.842;8.926;2023-04-20T13:21:17;96749.06;;;7.54;89.60
1401;BME280;46518;48.842;8.926;2023-04-20T13:23:45;96734.88;;;7.38;90.34
1401;BME280;46518;48.842;8.926;2023-04-20T13:26:14;96736.59;;;7.44;90.26
1401;BME280;46518;48.842;8.926;2023-04-20T13:28:42;96729.63;;;7.50;89.97
1401;BME280;46518;48.842;8.926;2023-04-20T13:31:10;96719.63;;;7.47;90.06
1401;BME280;46518;48.842;8.926;2023-04-20T13:33:38;96720.41;;;7.47;89.98
1401;BME280;46518;48.842;8.926;2023-04-20T13:36:08;96714.31;;;7.59;90.36